Lecueder, Argentina
Current Conditions -  °F | °C
As of 4:00 AM on Friday 24 Oct 2014 (Local Time) from SAOC Reporting Station
Clear Clear  
Wind Chill: 72°   Ceiling: Unl
Heat Index: 72°   Visibility: 6mi
Dew Point: 57°   Wind: 5mph
Humidity: 60%   Direction: 360°N
Pressure: 29.91"   Gusts: NA
Location:  34.42°S, 64.86°W
Report Text: SAOC 240700Z 36004KT CAVOK 22/14 Q1013
Loading
Personal Weather Stations






























Interactive Weather Map
Tropical Storm Tracking
New forecast layout! Learn more

10-Day Weather Forecast

Advertisements
Track Severe Weather on mobile